createdAt,value
2022-08-11T00:00:37.552Z,40.40
2022-08-11T00:03:23.370Z,40.56
2022-08-11T00:06:32.534Z,40.55
2022-08-11T00:09:21.851Z,40.56
2022-08-11T00:12:16.528Z,40.45
2022-08-11T00:15:02.598Z,40.56
2022-08-11T00:17:49.278Z,40.52
2022-08-11T00:20:39.881Z,40.66
2022-08-11T00:23:26.605Z,40.73
2022-08-11T00:26:14.022Z,40.56
2022-08-11T00:29:11.819Z,40.76
2022-08-11T00:32:01.540Z,40.72
2022-08-11T00:34:47.904Z,40.38
2022-08-11T00:37:34.211Z,40.73
2022-08-11T00:40:44.467Z,41.05
2022-08-11T00:43:57.348Z,40.97
2022-08-11T00:46:52.244Z,40.90
2022-08-11T00:50:09.219Z,41.54
2022-08-11T00:53:31.674Z,41.24
2022-08-11T00:57:01.562Z,41.23
2022-08-11T01:00:08.643Z,41.31
2022-08-11T01:03:25.958Z,41.27
2022-08-11T01:06:32.985Z,41.13
2022-08-11T01:09:44.574Z,41.13
2022-08-11T01:12:53.504Z,41.23
2022-08-11T01:16:02.237Z,41.25
2022-08-11T01:19:10.285Z,41.39
2022-08-11T01:22:24.048Z,41.24
2022-08-11T01:25:28.984Z,41.22
2022-08-11T01:28:36.757Z,41.22
2022-08-11T01:31:31.627Z,41.21
2022-08-11T01:34:26.716Z,41.24
2022-08-11T01:37:42.627Z,41.47
2022-08-11T01:40:52.336Z,41.60
2022-08-11T01:44:30.759Z,41.38
2022-08-11T01:47:52.678Z,41.42
2022-08-11T01:50:54.074Z,41.47
2022-08-11T01:53:55.496Z,41.60
2022-08-11T01:57:11.110Z,41.71
2022-08-11T02:00:12.300Z,41.54
2022-08-11T02:03:16.566Z,41.52
2022-08-11T02:06:41.226Z,41.46
2022-08-11T02:09:30.317Z,41.56
2022-08-11T02:12:37.812Z,41.79
2022-08-11T02:15:29.858Z,41.47
2022-08-11T02:18:53.829Z,41.59
2022-08-11T02:22:33.265Z,41.64
2022-08-11T02:25:38.771Z,41.69
2022-08-11T02:28:46.490Z,41.44
2022-08-11T02:32:17.192Z,41.56
2022-08-11T02:35:29.260Z,42.12
2022-08-11T02:38:30.976Z,41.74
2022-08-11T02:42:32.628Z,41.79
2022-08-11T02:45:54.896Z,41.86
2022-08-11T02:49:09.170Z,41.47
2022-08-11T02:52:13.789Z,41.45
2022-08-11T02:55:48.945Z,41.45
2022-08-11T02:58:41.548Z,41.52
2022-08-11T03:01:51.288Z,41.59
2022-08-11T03:04:52.145Z,41.51
2022-08-11T03:07:40.126Z,41.33
2022-08-11T03:11:11.237Z,41.46
2022-08-11T03:14:25.801Z,41.46
2022-08-11T03:17:34.438Z,41.55
2022-08-11T03:20:39.814Z,41.56
2022-08-11T03:23:45.447Z,41.58
2022-08-11T03:27:12.602Z,42.02
2022-08-11T03:31:03.053Z,41.89
2022-08-11T03:34:08.115Z,41.69
2022-08-11T03:37:52.168Z,41.78
2022-08-11T03:41:54.725Z,41.75
2022-08-11T03:44:50.303Z,41.91
2022-08-11T03:48:11.656Z,41.74
2022-08-11T03:51:13.908Z,41.56
2022-08-11T03:54:04.583Z,41.49
2022-08-11T03:57:36.869Z,41.71
2022-08-11T04:01:08.923Z,41.94
2022-08-11T04:04:45.312Z,41.74
2022-08-11T04:08:09.493Z,41.89
2022-08-11T04:11:15.741Z,41.69
2022-08-11T04:14:58.932Z,41.92
2022-08-11T04:18:13.629Z,41.62
2022-08-11T04:21:07.189Z,41.64
2022-08-11T04:24:37.974Z,41.60
2022-08-11T04:28:18.868Z,41.77
2022-08-11T04:31:51.362Z,41.76
2022-08-11T04:34:53.367Z,41.64
2022-08-11T04:37:53.225Z,41.58
2022-08-11T04:40:58.474Z,41.75
2022-08-11T04:44:06.423Z,41.67
2022-08-11T04:47:34.536Z,41.85
2022-08-11T04:51:34.296Z,41.59
2022-08-11T04:55:22.820Z,41.65
2022-08-11T04:58:52.715Z,41.89
2022-08-11T05:02:17.896Z,41.63
2022-08-11T05:05:56.572Z,41.70
2022-08-11T05:08:55.492Z,41.92
2022-08-11T05:11:57.808Z,41.82
2022-08-11T05:15:10.032Z,41.61
2022-08-11T05:18:19.946Z,41.61
2022-08-11T05:21:28.703Z,41.82
2022-08-11T05:24:39.911Z,42.01
2022-08-11T05:27:53.024Z,41.89
2022-08-11T05:31:00.220Z,41.73
2022-08-11T05:34:08.042Z,41.75
2022-08-11T05:37:23.753Z,41.84
2022-08-11T05:40:34.636Z,41.80
2022-08-11T05:44:19.851Z,41.86
2022-08-11T05:47:07.145Z,41.77
2022-08-11T05:50:13.710Z,41.96
2022-08-11T05:53:21.535Z,41.77
2022-08-11T05:56:20.940Z,41.69
2022-08-11T05:59:13.305Z,41.60
2022-08-11T06:02:05.958Z,41.52
2022-08-11T06:04:59.077Z,41.45
2022-08-11T06:07:48.578Z,41.52
2022-08-11T06:10:42.043Z,41.33
2022-08-11T06:13:37.223Z,41.45
2022-08-11T06:16:25.865Z,41.32
2022-08-11T06:19:12.323Z,41.34
2022-08-11T06:22:12.852Z,41.34
2022-08-11T06:25:32.335Z,41.32
2022-08-11T06:28:23.723Z,41.30
2022-08-11T06:31:20.437Z,41.54
2022-08-11T06:34:27.601Z,41.32
2022-08-11T06:37:23.110Z,41.48
2022-08-11T06:40:23.182Z,41.47
2022-08-11T06:43:27.174Z,41.55
2022-08-11T06:46:26.891Z,41.46
2022-08-11T06:49:37.288Z,41.41
2022-08-11T06:52:35.700Z,41.40
2022-08-11T06:55:56.721Z,41.32
2022-08-11T06:59:06.446Z,41.48
2022-08-11T07:02:11.376Z,42.00
2022-08-11T07:05:01.844Z,41.38
2022-08-11T07:08:33.959Z,41.35
2022-08-11T07:12:04.258Z,41.59
2022-08-11T07:15:14.567Z,41.24
2022-08-11T07:18:22.647Z,41.08
2022-08-11T07:22:01.393Z,41.02
2022-08-11T07:25:19.041Z,40.90
2022-08-11T07:28:31.578Z,40.91
2022-08-11T07:31:22.394Z,40.77
2022-08-11T07:34:31.676Z,41.16
2022-08-11T07:37:19.849Z,40.71
2022-08-11T07:40:06.637Z,40.57
2022-08-11T07:42:53.245Z,40.80
2022-08-11T07:46:02.027Z,40.66
2022-08-11T07:49:06.722Z,40.37
2022-08-11T07:52:12.449Z,39.99
2022-08-11T07:55:04.371Z,39.86
2022-08-11T07:58:19.282Z,39.73
2022-08-11T08:01:24.905Z,39.41
2022-08-11T08:04:31.431Z,39.15
2022-08-11T08:07:40.603Z,39.06
2022-08-11T08:10:45.483Z,39.00
2022-08-11T08:13:51.370Z,38.94
2022-08-11T08:16:56.394Z,38.73
2022-08-11T08:19:44.611Z,38.74
2022-08-11T08:22:38.742Z,38.52
2022-08-11T08:25:37.112Z,37.66
2022-08-11T08:28:22.934Z,38.21
2022-08-11T08:31:08.645Z,38.01
2022-08-11T08:33:55.216Z,37.64
2022-08-11T08:36:49.205Z,37.08
2022-08-11T08:39:38.012Z,37.42
2022-08-11T08:42:30.004Z,37.15
2022-08-11T08:45:17.402Z,37.19
2022-08-11T08:48:16.393Z,35.55
2022-08-11T08:51:26.816Z,36.46
2022-08-11T08:54:37.543Z,36.26
2022-08-11T08:57:24.497Z,36.18
2022-08-11T09:00:13.785Z,36.01
2022-08-11T09:03:17.224Z,35.70
2022-08-11T09:06:08.503Z,35.46
2022-08-11T09:08:55.422Z,35.56
2022-08-11T09:11:53.645Z,34.99
2022-08-11T09:15:00.696Z,34.96
2022-08-11T09:17:48.829Z,34.82
2022-08-11T09:20:36.761Z,34.69
2022-08-11T09:24:07.688Z,34.36
2022-08-11T09:26:59.435Z,34.72
2022-08-11T09:29:45.661Z,34.34
2022-08-11T09:32:33.173Z,34.03
2022-08-11T09:35:19.458Z,33.98
2022-08-11T09:38:25.202Z,33.51
2022-08-11T09:41:12.754Z,33.50
2022-08-11T09:44:19.876Z,33.33
2022-08-11T09:47:08.366Z,33.28
2022-08-11T09:50:00.653Z,33.22
2022-08-11T09:53:16.951Z,33.04
2022-08-11T09:55:55.569Z,33.23
2022-08-11T09:58:44.618Z,32.43
2022-08-11T10:01:32.560Z,32.52
2022-08-11T10:04:24.783Z,32.23
2022-08-11T10:07:11.451Z,32.11
2022-08-11T10:10:01.918Z,32.10
2022-08-11T10:12:50.556Z,32.17
2022-08-11T10:15:39.706Z,31.77
2022-08-11T10:18:52.812Z,31.74
2022-08-11T10:22:09.630Z,29.95
2022-08-11T10:25:15.223Z,31.41
2022-08-11T10:28:32.810Z,31.50
2022-08-11T10:31:46.389Z,31.56
2022-08-11T10:34:49.675Z,31.05
2022-08-11T10:38:07.916Z,31.00
2022-08-11T10:41:11.982Z,31.06
2022-08-11T10:44:01.921Z,30.58
2022-08-11T10:47:07.528Z,30.46
2022-08-11T10:50:12.767Z,30.33
2022-08-11T10:53:18.791Z,30.27
2022-08-11T10:56:24.776Z,30.58
2022-08-11T10:59:11.209Z,30.39
2022-08-11T11:01:58.336Z,30.51
2022-08-11T11:04:59.796Z,30.25
2022-08-11T11:07:48.566Z,30.18
2022-08-11T11:10:35.008Z,30.10
2022-08-11T11:13:40.387Z,29.80
2022-08-11T11:17:00.297Z,29.97
2022-08-11T11:19:47.393Z,29.42
2022-08-11T11:22:39.513Z,29.13
2022-08-11T11:26:07.613Z,27.69
2022-08-11T11:29:16.372Z,27.84
2022-08-11T11:32:25.178Z,30.16
2022-08-11T11:35:26.840Z,30.22
2022-08-11T11:38:14.276Z,29.89
2022-08-11T11:41:19.982Z,30.02
2022-08-11T11:44:06.230Z,29.86
2022-08-11T11:46:52.948Z,29.10
2022-08-11T11:49:44.216Z,29.04
2022-08-11T11:52:30.672Z,28.20
2022-08-11T11:55:18.465Z,28.20
2022-08-11T11:58:24.917Z,27.92
2022-08-11T12:01:19.959Z,27.77
2022-08-11T12:04:06.819Z,27.80
2022-08-11T12:07:14.730Z,28.00
2022-08-11T12:10:01.027Z,28.38
2022-08-11T12:13:05.958Z,28.70
2022-08-11T12:16:31.597Z,28.55
2022-08-11T12:19:00.354Z,28.55
2022-08-11T12:22:05.665Z,28.59
2022-08-11T12:25:16.757Z,28.79
2022-08-11T12:28:02.995Z,28.73
2022-08-11T12:30:54.133Z,28.81
2022-08-11T12:33:41.688Z,28.52
2022-08-11T12:36:28.128Z,28.44
2022-08-11T12:39:23.527Z,28.43
2022-08-11T12:42:46.654Z,28.27
2022-08-11T12:45:42.554Z,28.49
2022-08-11T12:48:58.748Z,27.92
2022-08-11T12:52:14.751Z,27.39
2022-08-11T12:55:34.260Z,27.03
2022-08-11T12:58:21.617Z,27.18
2022-08-11T13:01:26.658Z,27.32
2022-08-11T13:07:51.489Z,27.28
2022-08-11T13:15:02.930Z,26.94
2022-08-11T13:17:51.586Z,26.80
2022-08-11T13:20:38.307Z,26.29
2022-08-11T13:23:59.829Z,26.06
2022-08-11T13:26:51.496Z,26.45
2022-08-11T13:29:38.357Z,26.57
2022-08-11T13:32:26.505Z,26.66
2022-08-11T13:35:32.835Z,25.02
2022-08-11T13:38:22.189Z,26.60
2022-08-11T13:41:30.186Z,26.73
2022-08-11T13:44:23.102Z,26.72
2022-08-11T13:47:13.706Z,26.51
2022-08-11T13:49:59.740Z,26.04
2022-08-11T13:52:50.111Z,24.82
2022-08-11T13:55:51.894Z,24.20
2022-08-11T13:58:41.083Z,23.26
2022-08-11T14:02:22.405Z,23.05
2022-08-11T14:04:45.758Z,22.41
2022-08-11T14:07:46.748Z,22.03
2022-08-11T14:10:34.488Z,22.62
2022-08-11T14:13:42.736Z,22.34
2022-08-11T14:16:40.787Z,21.73
2022-08-11T14:19:27.357Z,21.28
2022-08-11T14:22:15.437Z,20.86
2022-08-11T14:25:02.193Z,20.32
2022-08-11T14:28:31.621Z,19.89
2022-08-11T14:31:01.800Z,19.97
2022-08-11T14:34:00.947Z,20.43
2022-08-11T14:36:52.363Z,20.61
2022-08-11T14:39:49.481Z,20.24
2022-08-11T14:42:54.088Z,21.44
2022-08-11T14:45:59.078Z,21.90
2022-08-11T14:48:45.654Z,21.84
2022-08-11T14:51:33.266Z,21.47
2022-08-11T14:54:37.645Z,21.17
2022-08-11T14:57:55.447Z,20.52
2022-08-11T15:00:31.194Z,19.85
2022-08-11T15:03:17.621Z,19.18
2022-08-11T15:06:05.256Z,18.14
2022-08-11T15:08:57.139Z,17.54
2022-08-11T15:12:03.055Z,17.07
2022-08-11T15:15:08.172Z,16.90
2022-08-11T15:17:56.271Z,16.15
2022-08-11T15:21:03.006Z,16.06
2022-08-11T15:24:08.097Z,15.35
2022-08-11T15:27:13.253Z,14.65
2022-08-11T15:30:32.342Z,14.62
2022-08-11T15:33:38.726Z,15.06
2022-08-11T15:36:45.145Z,15.25
2022-08-11T15:40:30.059Z,15.35
2022-08-11T15:43:42.928Z,15.64
2022-08-11T15:46:35.195Z,15.60
2022-08-11T15:50:11.361Z,15.73
2022-08-11T15:52:44.487Z,16.60
2022-08-11T15:55:33.255Z,16.65
2022-08-11T15:58:41.062Z,17.47
2022-08-11T16:01:51.727Z,17.61
2022-08-11T16:04:43.989Z,18.03
2022-08-11T16:07:31.625Z,18.52
2022-08-11T16:10:23.693Z,19.07
2022-08-11T16:13:12.562Z,19.38
2022-08-11T16:16:18.716Z,19.80
2022-08-11T16:19:08.498Z,20.06
2022-08-11T16:21:57.295Z,20.02
2022-08-11T16:27:02.158Z,20.33
2022-08-11T16:28:08.322Z,20.55
2022-08-11T16:31:00.971Z,21.34
2022-08-11T16:33:51.769Z,21.54
2022-08-11T16:36:57.579Z,21.32
2022-08-11T16:39:43.995Z,21.75
2022-08-11T16:43:08.576Z,21.94
2022-08-11T16:46:17.022Z,22.32
2022-08-11T16:49:07.656Z,22.11
2022-08-11T16:51:53.573Z,22.20
2022-08-11T16:54:44.324Z,22.74
2022-08-11T16:57:51.053Z,22.72
2022-08-11T17:00:37.624Z,23.00
2022-08-11T17:03:42.252Z,22.94
2022-08-11T17:06:46.901Z,23.18
2022-08-11T17:09:54.105Z,23.30
2022-08-11T17:13:00.150Z,23.39
2022-08-11T17:16:07.629Z,23.66
2022-08-11T17:19:10.438Z,24.03
2022-08-11T17:22:14.925Z,23.93
2022-08-11T17:25:01.616Z,24.17
2022-08-11T17:27:48.245Z,23.86
2022-08-11T17:30:53.306Z,24.20
2022-08-11T17:33:57.839Z,24.39
2022-08-11T17:36:45.733Z,24.58
2022-08-11T17:39:32.678Z,24.63
2022-08-11T17:42:38.201Z,24.85
2022-08-11T17:45:44.312Z,24.89
2022-08-11T17:48:33.144Z,25.04
2022-08-11T17:51:39.863Z,25.17
2022-08-11T17:54:50.362Z,25.12
2022-08-11T17:58:00.419Z,25.21
2022-08-11T18:00:46.436Z,25.19
2022-08-11T18:03:33.423Z,25.46
2022-08-11T18:06:20.009Z,25.29
2022-08-11T18:09:40.710Z,25.32
2022-08-11T18:12:45.539Z,25.41
2022-08-11T18:15:55.896Z,25.72
2022-08-11T18:19:00.684Z,25.69
2022-08-11T18:22:15.612Z,25.85
2022-08-11T18:25:26.531Z,25.84
2022-08-11T18:28:32.833Z,25.88
2022-08-11T18:31:39.869Z,25.93
2022-08-11T18:34:49.806Z,26.09
2022-08-11T18:38:02.962Z,26.41
2022-08-11T18:41:10.673Z,26.45
2022-08-11T18:44:19.158Z,26.78
2022-08-11T18:47:29.671Z,26.86
2022-08-11T18:50:39.357Z,26.56
2022-08-11T18:53:47.411Z,26.88
2022-08-11T18:56:52.335Z,26.91
2022-08-11T18:59:58.125Z,27.25
2022-08-11T19:03:06.458Z,26.95
2022-08-11T19:06:38.663Z,26.96
2022-08-11T19:09:37.172Z,27.43
2022-08-11T19:12:42.434Z,27.25
2022-08-11T19:15:48.540Z,27.45
2022-08-11T19:18:57.278Z,27.34
2022-08-11T19:22:12.164Z,27.70
2022-08-11T19:25:25.163Z,27.85
2022-08-11T19:28:43.643Z,27.86
2022-08-11T19:32:14.311Z,27.81
2022-08-11T19:35:23.925Z,27.77
2022-08-11T19:38:31.971Z,27.60
2022-08-11T19:41:56.798Z,27.93
2022-08-11T19:45:01.988Z,28.13
2022-08-11T19:48:31.806Z,27.96
2022-08-11T19:51:33.141Z,28.01
2022-08-11T19:54:38.703Z,28.18
2022-08-11T19:57:44.111Z,28.31
2022-08-11T20:00:49.937Z,28.17
2022-08-11T20:03:54.510Z,28.29
2022-08-11T20:06:59.366Z,28.26
2022-08-11T20:10:05.908Z,28.33
2022-08-11T20:13:18.206Z,28.54
2022-08-11T20:16:39.570Z,28.25
2022-08-11T20:20:05.780Z,28.48
2022-08-11T20:23:16.441Z,28.34
2022-08-11T20:26:31.487Z,28.42
2022-08-11T20:29:44.711Z,28.50
2022-08-11T20:32:55.336Z,28.74
2022-08-11T20:36:00.988Z,28.72
2022-08-11T20:39:10.761Z,28.59
2022-08-11T20:42:18.144Z,28.51
2022-08-11T20:45:26.778Z,28.58
2022-08-11T20:49:03.587Z,28.54
2022-08-11T20:52:17.100Z,28.84
2022-08-11T20:55:51.360Z,28.98
2022-08-11T21:02:17.683Z,28.98
2022-08-11T21:06:09.604Z,28.96
2022-08-11T21:08:53.012Z,29.08
2022-08-11T21:11:59.564Z,29.23
2022-08-11T21:15:04.691Z,29.20
2022-08-11T21:18:10.683Z,29.18
2022-08-11T21:21:45.997Z,29.18
2022-08-11T21:24:52.008Z,29.35
2022-08-11T21:28:00.134Z,29.27
2022-08-11T21:31:05.114Z,29.61
2022-08-11T21:34:11.888Z,29.65
2022-08-11T21:37:21.701Z,29.63
2022-08-11T21:40:27.280Z,29.77
2022-08-11T21:43:34.117Z,29.85
2022-08-11T21:46:40.970Z,29.88
2022-08-11T21:49:53.996Z,30.20
2022-08-11T21:53:02.064Z,30.09
2022-08-11T21:56:07.167Z,30.22
2022-08-11T21:59:15.377Z,30.37
2022-08-11T22:02:20.435Z,30.33
2022-08-11T22:05:26.957Z,29.96
2022-08-11T22:08:32.981Z,30.14
2022-08-11T22:11:38.551Z,30.39
2022-08-11T22:14:44.142Z,30.51
2022-08-11T22:17:48.932Z,30.36
2022-08-11T22:20:54.955Z,30.55
2022-08-11T22:23:59.875Z,30.47
2022-08-11T22:27:05.421Z,30.57
2022-08-11T22:30:09.987Z,30.50
2022-08-11T22:33:16.536Z,30.46
2022-08-11T22:36:21.560Z,30.50
2022-08-11T22:39:29.735Z,30.53
2022-08-11T22:42:41.473Z,30.56
2022-08-11T22:45:46.166Z,30.56
2022-08-11T22:48:51.526Z,30.48
2022-08-11T22:51:56.729Z,30.42
2022-08-11T22:55:01.859Z,30.40
2022-08-11T22:58:11.285Z,30.57
2022-08-11T23:01:17.364Z,30.50
2022-08-11T23:04:22.308Z,30.49
2022-08-11T23:07:51.812Z,30.54
2022-08-11T23:10:55.269Z,30.37
2022-08-11T23:14:01.535Z,30.60
2022-08-11T23:17:08.277Z,30.70
2022-08-11T23:20:27.399Z,30.56
2022-08-11T23:23:39.273Z,30.48
2022-08-11T23:26:46.814Z,30.45
2022-08-11T23:29:55.686Z,30.33
2022-08-11T23:33:07.297Z,30.31
2022-08-11T23:36:12.011Z,30.23
2022-08-11T23:39:36.411Z,30.45
2022-08-11T23:42:41.179Z,30.32
2022-08-11T23:45:50.802Z,30.22
2022-08-11T23:48:56.925Z,30.28
2022-08-11T23:52:02.799Z,30.46
2022-08-11T23:55:08.934Z,30.34
2022-08-11T23:58:13.335Z,30.30
